createdAt,value
2019-06-27T07:53:42.846Z,8.67
2019-06-27T07:56:11.426Z,8.87
2019-06-27T07:58:39.930Z,8.73
2019-06-27T08:01:08.423Z,11.03
2019-06-27T08:03:36.899Z,8.77
2019-06-27T08:06:05.396Z,10.17
2019-06-27T08:08:33.854Z,10.40
2019-06-27T08:11:02.430Z,8.60
2019-06-27T08:13:30.927Z,11.53
2019-06-27T08:15:59.398Z,8.00
2019-06-27T08:18:28.493Z,8.17
2019-06-27T08:20:57.069Z,15.17
2019-06-27T08:23:40.609Z,9.33
2019-06-27T08:25:55.932Z,9.93
2019-06-27T08:28:24.412Z,10.70
2019-06-27T08:30:52.874Z,7.93
2019-06-27T08:33:21.355Z,10.10
2019-06-27T08:35:49.918Z,10.27
2019-06-27T08:38:18.330Z,10.37
2019-06-27T08:40:46.957Z,8.10
2019-06-27T08:43:15.433Z,7.87
2019-06-27T08:45:44.119Z,11.93
2019-06-27T08:48:12.620Z,8.43
2019-06-27T08:50:41.201Z,10.07
2019-06-27T08:53:09.591Z,8.53
2019-06-27T08:55:37.954Z,9.37
2019-06-27T08:58:06.532Z,8.37
2019-06-27T09:00:35.199Z,8.50
2019-06-27T09:03:04.590Z,8.37
2019-06-27T09:05:33.874Z,11.23
2019-06-27T09:08:04.706Z,7.97
2019-06-27T09:10:33.274Z,7.57
2019-06-27T09:13:01.862Z,9.97
2019-06-27T09:15:30.543Z,9.10
2019-06-27T09:17:59.112Z,11.03
2019-06-27T09:20:27.477Z,11.03
2019-06-27T09:22:56.065Z,8.50
2019-06-27T09:25:24.713Z,11.80
2019-06-27T09:27:53.275Z,10.23
2019-06-27T09:30:22.056Z,11.00
2019-06-27T09:32:50.552Z,7.93
2019-06-27T09:35:19.033Z,8.57
2019-06-27T09:37:47.560Z,7.70
2019-06-27T09:40:16.303Z,7.60
2019-06-27T09:42:44.777Z,8.13
2019-06-27T09:45:13.980Z,7.83
2019-06-27T09:47:42.549Z,8.33
2019-06-27T09:50:11.043Z,8.00
2019-06-27T09:52:39.643Z,7.70
2019-06-27T09:55:09.125Z,7.90
2019-06-27T09:57:37.641Z,7.87
2019-06-27T10:00:06.367Z,8.00
2019-06-27T10:02:41.444Z,7.47
2019-06-27T10:05:05.605Z,7.70
2019-06-27T10:07:34.074Z,7.77
2019-06-27T10:10:03.222Z,7.30
2019-06-27T10:12:41.653Z,10.70
2019-06-27T10:15:02.290Z,7.67
2019-06-27T10:17:31.053Z,9.67
2019-06-27T10:19:59.641Z,7.63
2019-06-27T10:22:28.213Z,15.20
2019-06-27T10:24:56.792Z,7.67
2019-06-27T10:27:25.455Z,14.43
2019-06-27T10:29:53.929Z,6.80
2019-06-27T10:32:22.306Z,7.17
2019-06-27T10:34:50.787Z,8.03
2019-06-27T10:37:19.268Z,7.40
2019-06-27T10:39:47.691Z,6.70
2019-06-27T10:42:16.202Z,7.17
2019-06-27T10:44:44.789Z,10.87
2019-06-27T10:47:13.269Z,8.47
2019-06-27T10:49:41.683Z,6.83
2019-06-27T10:52:10.270Z,6.70
2019-06-27T10:54:38.778Z,11.90
2019-06-27T10:57:07.339Z,6.80
2019-06-27T10:59:35.797Z,5.40
2019-06-27T11:02:05.020Z,6.37
2019-06-27T11:04:33.495Z,7.00
2019-06-27T11:07:01.897Z,5.83
2019-06-27T11:09:30.526Z,5.90
2019-06-27T11:11:58.955Z,6.73
2019-06-27T11:14:27.416Z,6.40
2019-06-27T11:16:56.037Z,6.53
2019-06-27T11:19:24.482Z,6.57
2019-06-27T11:21:53.150Z,9.93
2019-06-27T11:24:21.644Z,8.97
2019-06-27T11:26:50.025Z,6.87
2019-06-27T11:29:18.570Z,6.50
2019-06-27T11:31:47.258Z,6.67
2019-06-27T11:34:19.083Z,6.83
2019-06-27T11:36:46.722Z,6.50
2019-06-27T11:39:15.328Z,6.60
2019-06-27T11:41:43.836Z,5.77
2019-06-27T11:44:12.418Z,6.37
2019-06-27T11:46:40.900Z,6.13
2019-06-27T11:49:09.364Z,5.80
2019-06-27T11:51:37.869Z,5.67
2019-06-27T11:54:06.454Z,7.27
2019-06-27T11:56:35.057Z,6.03
2019-06-27T11:59:03.620Z,5.73
2019-06-27T12:01:32.201Z,5.73
2019-06-27T12:04:00.653Z,5.40
2019-06-27T12:06:29.166Z,5.77
2019-06-27T12:08:57.654Z,5.53
2019-06-27T12:11:26.245Z,7.20
2019-06-27T12:13:54.683Z,5.80
2019-06-27T12:16:23.136Z,5.60
2019-06-27T12:18:51.630Z,7.47
2019-06-27T12:21:20.177Z,5.77
2019-06-27T12:23:48.666Z,8.03
2019-06-27T12:26:17.242Z,7.27
2019-06-27T12:28:46.125Z,5.13
2019-06-27T12:31:20.344Z,5.60
2019-06-27T12:33:45.077Z,6.27
2019-06-27T12:36:13.550Z,6.10
2019-06-27T12:38:42.043Z,8.13
2019-06-27T12:41:10.506Z,6.43
2019-06-27T12:43:38.980Z,5.60
2019-06-27T12:46:07.604Z,6.37
2019-06-27T12:48:37.193Z,6.40
2019-06-27T12:51:05.742Z,6.13
2019-06-27T12:53:34.435Z,5.93
2019-06-27T12:56:02.909Z,5.73
2019-06-27T12:58:31.421Z,5.97
2019-06-27T13:00:59.887Z,6.00
2019-06-27T13:03:28.481Z,6.67
2019-06-27T13:05:57.057Z,6.27
2019-06-27T13:08:25.640Z,8.13
2019-06-27T13:10:54.008Z,7.40
2019-06-27T13:13:22.490Z,6.07
2019-06-27T13:15:51.083Z,6.47
2019-06-27T13:18:19.673Z,6.90
2019-06-27T13:20:57.938Z,7.00
2019-06-27T13:23:18.693Z,7.73
2019-06-27T13:25:47.331Z,10.93
2019-06-27T13:28:15.852Z,9.10
2019-06-27T13:30:44.354Z,7.27
2019-06-27T13:33:12.842Z,8.93
2019-06-27T13:35:41.616Z,6.80
2019-06-27T13:38:10.284Z,7.63
2019-06-27T13:40:38.657Z,6.80
2019-06-27T13:43:07.318Z,8.43
2019-06-27T13:45:35.765Z,9.63
2019-06-27T13:48:04.253Z,7.90
2019-06-27T13:50:33.365Z,7.47
2019-06-27T13:53:01.978Z,7.60
2019-06-27T13:55:30.781Z,7.33
2019-06-27T13:57:59.274Z,9.20
2019-06-27T14:00:36.881Z,7.47
2019-06-27T14:03:05.846Z,7.70
2019-06-27T14:05:34.441Z,8.83
2019-06-27T14:08:03.159Z,6.93
2019-06-27T14:10:31.725Z,7.60
2019-06-27T14:13:00.414Z,7.13
2019-06-27T14:15:29.098Z,8.53
2019-06-27T14:17:57.689Z,7.77
2019-06-27T14:20:26.155Z,7.20
2019-06-27T14:22:54.936Z,8.67
2019-06-27T14:25:23.529Z,9.43
2019-06-27T14:27:52.187Z,11.40
2019-06-27T14:30:20.791Z,8.87
2019-06-27T14:32:53.153Z,8.40
2019-06-27T14:35:20.042Z,8.20
2019-06-27T14:37:48.741Z,8.60
2019-06-27T14:40:17.801Z,8.40
2019-06-27T14:42:46.372Z,9.03
2019-06-27T14:45:14.963Z,9.67
2019-06-27T14:47:43.652Z,9.57
2019-06-27T14:50:12.476Z,7.90
2019-06-27T14:52:41.033Z,8.43
2019-06-27T14:55:10.013Z,7.77
2019-06-27T14:57:38.822Z,7.90
2019-06-27T15:00:09.731Z,7.60
2019-06-27T15:02:38.173Z,7.23
2019-06-27T15:05:08.063Z,6.80
2019-06-27T15:07:36.550Z,7.30
2019-06-27T15:10:06.364Z,7.73
2019-06-27T15:12:35.919Z,7.67
2019-06-27T15:15:05.795Z,7.33
2019-06-27T15:17:34.261Z,10.97
2019-06-27T15:20:02.949Z,11.80
2019-06-27T15:22:31.460Z,7.90
2019-06-27T15:25:00.028Z,8.37
2019-06-27T15:27:28.769Z,9.40
2019-06-27T15:29:57.763Z,9.00
2019-06-27T15:32:26.394Z,7.57
2019-06-27T15:34:55.072Z,12.77
2019-06-27T15:37:23.667Z,15.93
2019-06-27T15:39:52.262Z,11.80
2019-06-27T15:42:20.813Z,12.43
2019-06-27T15:44:49.444Z,9.03
2019-06-27T15:47:18.478Z,7.50
2019-06-27T15:49:47.432Z,9.00
2019-06-27T15:52:15.939Z,7.23
2019-06-27T15:54:44.548Z,9.00
2019-06-27T15:57:13.172Z,7.97
2019-06-27T15:59:41.555Z,6.10
2019-06-27T16:02:10.127Z,7.67
2019-06-27T16:04:38.615Z,7.27
2019-06-27T16:07:07.261Z,8.67
2019-06-27T16:09:35.753Z,7.13
2019-06-27T16:12:04.231Z,8.77
2019-06-27T16:14:32.588Z,6.33
2019-06-27T16:17:01.048Z,7.07
2019-06-27T16:19:29.622Z,7.03
2019-06-27T16:21:58.104Z,7.17
2019-06-27T16:24:26.694Z,6.77
2019-06-27T16:26:55.258Z,6.00
2019-06-27T16:29:23.834Z,7.40
2019-06-27T16:31:52.393Z,7.20
2019-06-27T16:34:20.965Z,6.90
2019-06-27T16:36:49.444Z,7.43
2019-06-27T16:39:17.957Z,6.30
2019-06-27T16:41:46.641Z,7.20
2019-06-27T16:44:15.231Z,7.43
2019-06-27T16:46:44.116Z,6.80
2019-06-27T16:49:12.618Z,6.80
2019-06-27T16:51:41.091Z,7.70
2019-06-27T16:54:10.065Z,6.60
2019-06-27T16:56:38.656Z,6.90
2019-06-27T16:59:07.149Z,8.87
2019-06-27T17:01:35.814Z,7.53
2019-06-27T17:04:04.377Z,7.50
2019-06-27T17:06:42.256Z,7.13
2019-06-27T17:09:04.298Z,7.20
2019-06-27T17:11:32.977Z,7.30
2019-06-27T17:14:01.636Z,7.57
2019-06-27T17:16:30.122Z,7.67
2019-06-27T17:18:58.604Z,8.07
2019-06-27T17:21:27.281Z,13.27
2019-06-27T17:23:55.963Z,7.37
2019-06-27T17:26:24.537Z,7.67
2019-06-27T17:28:52.997Z,7.37
2019-06-27T17:31:21.575Z,7.37
2019-06-27T17:33:49.946Z,7.80
2019-06-27T17:36:18.413Z,7.80
2019-06-27T17:38:46.877Z,7.13
2019-06-27T17:41:15.338Z,9.43
2019-06-27T17:43:43.805Z,9.10
2019-06-27T17:46:12.406Z,8.83
2019-06-27T17:48:40.788Z,7.30
2019-06-27T17:51:09.175Z,7.13
2019-06-27T17:53:37.638Z,6.87
2019-06-27T17:56:06.009Z,6.90
2019-06-27T17:58:34.589Z,7.07
2019-06-27T18:01:03.284Z,6.87
2019-06-27T18:03:31.813Z,8.00
2019-06-27T18:06:00.490Z,6.90
2019-06-27T18:08:29.168Z,7.23
2019-06-27T18:10:57.673Z,8.63
2019-06-27T18:13:26.454Z,7.10
2019-06-27T18:15:55.038Z,8.10
2019-06-27T18:18:23.432Z,7.57
2019-06-27T18:20:52.008Z,10.93
2019-06-27T18:23:20.614Z,7.60
2019-06-27T18:25:49.306Z,7.83
2019-06-27T18:28:17.989Z,10.13
2019-06-27T18:30:46.682Z,8.87
2019-06-27T18:33:15.263Z,8.43
2019-06-27T18:35:43.652Z,9.47
2019-06-27T18:38:12.305Z,9.40
2019-06-27T18:40:40.870Z,10.53
2019-06-27T18:43:09.446Z,10.73
2019-06-27T18:45:38.022Z,14.07
2019-06-27T18:48:12.383Z,15.33
2019-06-27T18:50:45.743Z,12.70
2019-06-27T18:53:14.329Z,15.27
2019-06-27T18:55:42.749Z,11.67
2019-06-27T18:58:11.348Z,8.97
2019-06-27T19:00:39.913Z,8.87
2019-06-27T19:03:08.405Z,13.33
2019-06-27T19:05:36.803Z,13.43
2019-06-27T19:08:05.275Z,10.57
2019-06-27T19:10:34.045Z,11.70
2019-06-27T19:13:02.529Z,12.97
2019-06-27T19:15:31.105Z,13.73
2019-06-27T19:17:59.584Z,13.97
2019-06-27T19:20:37.022Z,12.83
2019-06-27T19:23:25.061Z,12.20
2019-06-27T19:25:56.016Z,13.37
2019-06-27T19:28:24.391Z,13.97
2019-06-27T19:30:52.967Z,15.30
2019-06-27T19:33:21.456Z,12.90
2019-06-27T19:35:49.939Z,11.17
2019-06-27T19:38:18.436Z,14.17
2019-06-27T19:40:46.992Z,15.67
2019-06-27T19:43:27.020Z,12.63
2019-06-27T19:45:45.867Z,10.97
2019-06-27T19:48:14.273Z,12.47
2019-06-27T19:50:42.958Z,12.07
2019-06-27T19:53:11.845Z,9.50
2019-06-27T19:55:40.425Z,11.13
2019-06-27T19:58:09.147Z,10.17
2019-06-27T20:00:37.711Z,10.63
2019-06-27T20:03:06.098Z,10.43
2019-06-27T20:05:34.802Z,9.33
2019-06-27T20:08:17.767Z,8.73
2019-06-27T20:10:33.676Z,10.27
2019-06-27T20:13:02.292Z,10.57
2019-06-27T20:15:30.887Z,8.73
2019-06-27T20:18:00.594Z,9.97
2019-06-27T20:20:29.177Z,10.03
2019-06-27T20:22:57.750Z,9.20
2019-06-27T20:25:26.230Z,9.13
2019-06-27T20:27:54.733Z,8.97
2019-06-27T20:30:23.214Z,9.20
2019-06-27T20:32:51.694Z,8.67
2019-06-27T20:35:20.363Z,8.87
2019-06-27T20:37:49.345Z,8.77
2019-06-27T20:40:18.651Z,8.37
2019-06-27T20:43:06.791Z,10.40
2019-06-27T20:45:35.374Z,9.37
2019-06-27T20:48:04.018Z,8.83
2019-06-27T20:50:32.465Z,9.20
2019-06-27T20:53:01.073Z,9.50
2019-06-27T20:55:29.673Z,10.30
2019-06-27T20:57:58.259Z,11.87
2019-06-27T21:00:26.930Z,13.27
2019-06-27T21:02:55.627Z,9.80
2019-06-27T21:05:24.092Z,9.87
2019-06-27T21:07:52.577Z,9.43
2019-06-27T21:10:21.145Z,9.73
2019-06-27T21:12:49.707Z,9.37
2019-06-27T21:15:18.595Z,10.37
2019-06-27T21:17:47.085Z,9.50
2019-06-27T21:20:16.056Z,9.30
2019-06-27T21:22:46.091Z,9.30
2019-06-27T21:25:16.546Z,8.50
2019-06-27T21:27:45.523Z,9.20
2019-06-27T21:30:16.122Z,8.80
2019-06-27T21:32:48.122Z,9.17
2019-06-27T21:35:14.868Z,11.80
2019-06-27T21:37:43.347Z,9.57
2019-06-27T21:40:12.134Z,9.50
2019-06-27T21:42:40.722Z,9.83
2019-06-27T21:45:09.697Z,9.57
2019-06-27T21:47:38.273Z,8.70
2019-06-27T21:50:07.055Z,8.53
2019-06-27T21:52:35.525Z,11.00
2019-06-27T21:55:04.145Z,9.73
2019-06-27T21:57:32.662Z,9.07
2019-06-27T22:00:01.285Z,10.37
2019-06-27T22:02:29.853Z,9.47
2019-06-27T22:04:58.317Z,9.13
2019-06-27T22:07:26.889Z,9.27
2019-06-27T22:09:55.446Z,9.70
2019-06-27T22:12:24.018Z,9.73
2019-06-27T22:14:52.503Z,9.97
2019-06-27T22:17:21.073Z,9.30
2019-06-27T22:19:49.557Z,9.03
2019-06-27T22:22:18.019Z,9.17
2019-06-27T22:24:46.481Z,8.40
2019-06-27T22:27:14.862Z,9.50
2019-06-27T22:29:43.325Z,8.70
2019-06-27T22:32:11.981Z,9.77
2019-06-27T22:34:40.646Z,9.13
2019-06-27T22:37:09.310Z,9.40
2019-06-27T22:39:55.907Z,9.37
2019-06-27T22:42:42.491Z,9.53
2019-06-27T22:45:29.729Z,9.17
2019-06-27T22:48:13.399Z,9.10
2019-06-27T22:51:01.912Z,9.40
2019-06-27T22:53:35.041Z,8.70
2019-06-27T22:56:03.692Z,9.80
2019-06-27T22:58:32.067Z,9.60
2019-06-27T23:01:01.316Z,9.00
2019-06-27T23:03:29.903Z,9.63
2019-06-27T23:05:58.362Z,9.63
2019-06-27T23:08:26.737Z,10.70
2019-06-27T23:10:55.198Z,11.67
2019-06-27T23:13:23.782Z,10.00
2019-06-27T23:15:52.252Z,13.27
2019-06-27T23:18:20.728Z,10.00
2019-06-27T23:20:49.205Z,9.60
2019-06-27T23:23:17.674Z,9.10
2019-06-27T23:25:46.047Z,9.83
2019-06-27T23:28:14.643Z,10.50
2019-06-27T23:30:43.908Z,10.10
2019-06-27T23:33:12.524Z,9.60
2019-06-27T23:35:41.061Z,10.13
2019-06-27T23:38:09.537Z,10.47
2019-06-27T23:40:38.006Z,9.90
2019-06-27T23:43:06.479Z,10.23
2019-06-27T23:45:35.081Z,10.33
2019-06-27T23:48:03.555Z,11.13
2019-06-27T23:50:32.117Z,10.67
2019-06-27T23:53:00.495Z,10.60
2019-06-27T23:55:28.944Z,10.10
2019-06-27T23:57:57.339Z,10.07
